createdAt,value
2023-04-22T00:04:09.785Z,69.20
2023-04-22T00:09:12.560Z,69.80
2023-04-22T00:14:15.089Z,72.10
2023-04-22T00:19:17.540Z,73.60
2023-04-22T00:24:20.184Z,73.60
2023-04-22T00:29:22.733Z,72.90
2023-04-22T00:34:25.401Z,73.40
2023-04-22T00:39:27.925Z,73.40
2023-04-22T00:44:32.884Z,74.60
2023-04-22T00:49:36.383Z,74.70
2023-04-22T00:54:38.991Z,74.00
2023-04-22T00:59:42.869Z,74.10
2023-04-22T01:04:45.950Z,74.20
2023-04-22T01:09:48.459Z,73.90
2023-04-22T01:14:51.589Z,74.50
2023-04-22T01:19:55.799Z,76.20
2023-04-22T01:24:58.360Z,76.30
2023-04-22T01:30:00.911Z,78.40
2023-04-22T01:35:04.450Z,81.10
2023-04-22T01:40:09.245Z,81.70
2023-04-22T01:45:13.261Z,81.10
2023-04-22T01:50:15.748Z,80.30
2023-04-22T01:55:18.254Z,81.10
2023-04-22T02:00:20.890Z,82.60
2023-04-22T02:05:24.160Z,84.10
2023-04-22T02:10:27.623Z,84.70
2023-04-22T02:15:30.668Z,82.70
2023-04-22T02:20:33.169Z,83.20
2023-04-22T02:25:36.228Z,84.70
2023-04-22T02:30:38.711Z,84.00
2023-04-22T02:35:41.910Z,84.80
2023-04-22T02:40:44.538Z,84.90
2023-04-22T02:45:47.727Z,84.30
2023-04-22T02:50:51.400Z,86.30
2023-04-22T02:55:55.757Z,86.30
2023-04-22T03:00:58.408Z,86.80
2023-04-22T03:06:00.991Z,85.60
2023-04-22T03:11:04.606Z,86.40
2023-04-22T03:16:07.702Z,88.10
2023-04-22T03:21:10.314Z,86.90
2023-04-22T03:26:13.823Z,87.70
2023-04-22T03:31:17.645Z,88.10
2023-04-22T03:36:21.854Z,87.10
2023-04-22T03:41:26.530Z,89.00
2023-04-22T03:46:29.339Z,90.20
2023-04-22T03:51:40.703Z,90.40
2023-04-22T03:56:47.831Z,90.20
2023-04-22T04:01:53.210Z,90.50
2023-04-22T04:07:00.578Z,91.00
2023-04-22T04:12:04.295Z,90.70
2023-04-22T04:17:14.145Z,90.40
2023-04-22T04:22:17.145Z,91.40
2023-04-22T04:27:27.177Z,91.60
2023-04-22T04:32:34.347Z,91.80
2023-04-22T04:37:43.577Z,91.40
2023-04-22T04:42:46.467Z,91.60
2023-04-22T04:47:55.088Z,90.90
2023-04-22T04:53:02.935Z,90.00
2023-04-22T04:58:11.664Z,88.20
2023-04-22T05:03:14.808Z,86.50
2023-04-22T05:08:17.599Z,84.60
2023-04-22T05:13:22.809Z,84.20
2023-04-22T05:18:27.258Z,82.80
2023-04-22T05:23:30.948Z,82.90
2023-04-22T05:28:35.364Z,82.40
2023-04-22T05:33:38.011Z,80.70
2023-04-22T05:38:42.035Z,80.50
2023-04-22T05:43:44.639Z,80.30
2023-04-22T05:48:51.836Z,79.50
2023-04-22T05:54:13.335Z,79.50
2023-04-22T05:59:16.094Z,78.60
2023-04-22T06:04:19.654Z,77.00
2023-04-22T06:09:23.301Z,76.10
2023-04-22T06:14:25.820Z,76.10
2023-04-22T06:19:28.352Z,75.90
2023-04-22T06:24:30.977Z,75.80
2023-04-22T06:29:33.827Z,76.90
2023-04-22T06:34:38.696Z,76.70
2023-04-22T06:39:42.493Z,76.90
2023-04-22T06:45:16.144Z,77.10
2023-04-22T06:50:41.509Z,77.20
2023-04-22T06:55:44.022Z,76.40
2023-04-22T07:00:46.847Z,74.70
2023-04-22T07:05:49.637Z,76.20
2023-04-22T07:10:52.400Z,76.10
2023-04-22T07:16:07.281Z,72.30
2023-04-22T07:21:09.823Z,70.00
2023-04-22T07:26:12.355Z,69.50
2023-04-22T07:31:14.965Z,69.10
2023-04-22T07:36:17.419Z,68.70
2023-04-22T07:41:20.418Z,68.80
2023-04-22T07:46:23.247Z,70.00
2023-04-22T07:51:26.093Z,69.50
2023-04-22T07:56:28.540Z,69.10
2023-04-22T08:01:31.280Z,68.10
2023-04-22T08:06:34.032Z,66.50
2023-04-22T08:11:36.680Z,65.80
2023-04-22T08:16:40.171Z,63.60
2023-04-22T08:21:42.861Z,62.70
2023-04-22T08:26:45.368Z,63.50
2023-04-22T08:31:47.921Z,64.70
2023-04-22T08:36:50.446Z,63.50
2023-04-22T08:41:54.386Z,62.10
2023-04-22T08:46:57.428Z,61.70
2023-04-22T08:52:00.036Z,58.70
2023-04-22T08:57:03.157Z,58.30
2023-04-22T09:02:07.618Z,56.20
2023-04-22T09:07:12.120Z,54.90
2023-04-22T09:12:14.720Z,54.50
2023-04-22T09:17:18.938Z,53.90
2023-04-22T09:22:22.719Z,53.10
2023-04-22T09:27:26.424Z,51.40
2023-04-22T09:32:28.925Z,51.00
2023-04-22T09:37:42.871Z,44.20
2023-04-22T09:42:54.085Z,46.80
2023-04-22T09:47:59.826Z,44.30
2023-04-22T09:53:04.580Z,44.30
2023-04-22T09:58:12.456Z,43.20
2023-04-22T10:03:15.778Z,42.40
2023-04-22T10:08:18.707Z,42.70
2023-04-22T10:13:21.362Z,38.90
2023-04-22T10:18:27.118Z,39.30
2023-04-22T10:23:32.993Z,37.30
2023-04-22T10:28:35.511Z,36.80
2023-04-22T10:33:39.462Z,38.50
2023-04-22T10:39:03.519Z,36.70
2023-04-22T10:44:08.254Z,37.20
2023-04-22T10:49:18.094Z,34.80
2023-04-22T10:54:31.887Z,33.60
2023-04-22T10:59:50.064Z,35.30
2023-04-22T11:05:25.347Z,35.80
2023-04-22T11:10:43.986Z,35.30
2023-04-22T11:15:55.395Z,34.60
2023-04-22T11:21:05.562Z,32.50
2023-04-22T11:26:08.112Z,31.40
2023-04-22T11:31:10.830Z,31.80
2023-04-22T11:36:13.566Z,32.10
2023-04-22T11:41:21.718Z,31.00
2023-04-22T11:46:39.325Z,30.00
2023-04-22T11:51:59.153Z,29.80
2023-04-22T11:57:09.614Z,29.10
2023-04-22T12:02:12.532Z,29.60
2023-04-22T12:07:15.959Z,28.50
2023-04-22T12:12:18.616Z,29.50
2023-04-22T12:17:25.475Z,27.80
2023-04-22T12:22:30.300Z,27.50
2023-04-22T12:27:33.103Z,25.60
2023-04-22T12:32:35.661Z,26.30
2023-04-22T12:37:38.347Z,25.80
2023-04-22T12:42:41.084Z,25.60
2023-04-22T12:47:44.243Z,23.60
2023-04-22T12:52:47.020Z,24.10
2023-04-22T12:57:51.469Z,23.30
2023-04-22T13:02:54.309Z,23.30
2023-04-22T13:08:06.592Z,22.30
2023-04-22T13:13:18.319Z,22.40
2023-04-22T13:18:23.411Z,22.50
2023-04-22T13:23:27.088Z,21.70
2023-04-22T13:28:29.556Z,21.50
2023-04-22T13:33:32.031Z,20.60
2023-04-22T13:38:34.559Z,20.50
2023-04-22T13:43:37.050Z,20.30
2023-04-22T13:48:39.886Z,19.10
2023-04-22T13:53:42.322Z,18.70
2023-04-22T13:58:44.759Z,18.10
2023-04-22T14:03:48.538Z,18.00
2023-04-22T14:08:51.046Z,16.70
2023-04-22T14:13:53.522Z,18.30
2023-04-22T14:18:56.037Z,17.20
2023-04-22T14:23:58.486Z,17.10
2023-04-22T14:29:00.956Z,16.90
2023-04-22T14:34:03.554Z,16.50
2023-04-22T14:39:06.002Z,16.30
2023-04-22T14:44:08.470Z,16.10
2023-04-22T14:49:11.229Z,16.30
2023-04-22T14:54:13.831Z,16.50
2023-04-22T14:59:16.253Z,16.60
2023-04-22T15:04:19.532Z,16.70
2023-04-22T15:09:22.046Z,16.30
2023-04-22T15:14:24.454Z,16.00
2023-04-22T15:19:26.922Z,16.60
2023-04-22T15:24:29.397Z,16.90
2023-04-22T15:29:32.341Z,16.80
2023-04-22T15:34:34.998Z,16.60
2023-04-22T15:39:37.776Z,17.00
2023-04-22T15:44:40.701Z,17.60
2023-04-22T15:49:43.407Z,17.60
2023-04-22T15:54:46.687Z,17.20
2023-04-22T15:59:53.629Z,17.20
2023-04-22T16:05:02.523Z,17.20
2023-04-22T16:10:05.600Z,17.10
2023-04-22T16:15:09.626Z,17.00
2023-04-22T16:20:12.246Z,17.10
2023-04-22T16:25:14.685Z,18.50
2023-04-22T16:30:17.144Z,18.20
2023-04-22T16:35:19.766Z,18.70
2023-04-22T16:40:24.895Z,19.50
2023-04-22T16:45:27.357Z,20.20
2023-04-22T16:50:30.151Z,22.10
2023-04-22T16:55:33.352Z,23.10
2023-04-22T17:00:37.014Z,22.80
2023-04-22T17:05:39.843Z,22.10
2023-04-22T17:10:45.404Z,21.80
2023-04-22T17:15:47.975Z,22.30
2023-04-22T17:20:50.429Z,23.30
2023-04-22T17:25:53.013Z,25.80
2023-04-22T17:30:55.554Z,27.70
2023-04-22T17:35:58.079Z,29.30
2023-04-22T17:41:00.761Z,30.20
2023-04-22T17:46:03.332Z,31.80
2023-04-22T17:51:07.239Z,33.20
2023-04-22T17:56:09.723Z,34.30
2023-04-22T18:01:12.297Z,36.50
2023-04-22T18:06:14.859Z,38.40
2023-04-22T18:11:17.340Z,42.50
2023-04-22T18:16:19.872Z,44.00
2023-04-22T18:21:22.434Z,46.70
2023-04-22T18:26:24.975Z,46.80
2023-04-22T18:31:27.466Z,48.90
2023-04-22T18:36:29.924Z,49.30
2023-04-22T18:41:32.331Z,49.60
2023-04-22T18:46:34.894Z,52.20
2023-04-22T18:51:39.265Z,52.00
2023-04-22T18:56:43.074Z,52.20
2023-04-22T19:01:45.723Z,53.60
2023-04-22T19:06:48.916Z,54.80
2023-04-22T19:11:51.341Z,56.20
2023-04-22T19:16:53.780Z,57.50
2023-04-22T19:21:56.215Z,58.10
2023-04-22T19:26:58.857Z,58.80
2023-04-22T19:32:01.953Z,59.20
2023-04-22T19:37:04.766Z,59.10
2023-04-22T19:42:07.382Z,59.40
2023-04-22T19:47:09.948Z,60.60
2023-04-22T19:52:15.857Z,63.00
2023-04-22T19:57:18.489Z,63.60
2023-04-22T20:02:23.647Z,64.10
2023-04-22T20:12:30.916Z,65.00
2023-04-22T20:17:38.740Z,66.20
2023-04-22T20:22:45.545Z,66.20
2023-04-22T20:27:48.809Z,66.70
2023-04-22T20:32:51.715Z,67.50
2023-04-22T20:37:59.066Z,68.80
2023-04-22T20:43:02.526Z,69.60
2023-04-22T20:48:05.392Z,70.20
2023-04-22T20:53:08.243Z,70.70
2023-04-22T20:58:11.040Z,71.00
2023-04-22T21:03:15.807Z,72.00
2023-04-22T21:08:23.277Z,72.10
2023-04-22T21:13:26.195Z,72.40
2023-04-22T21:18:31.647Z,73.30
2023-04-22T21:23:34.676Z,75.60
2023-04-22T21:28:39.172Z,75.60
2023-04-22T21:33:41.586Z,77.10
2023-04-22T21:38:44.144Z,77.80
2023-04-22T21:43:46.605Z,79.00
2023-04-22T21:48:49.023Z,79.20
2023-04-22T21:53:52.007Z,80.70
2023-04-22T21:58:54.257Z,81.50
2023-04-22T22:03:56.680Z,82.40
2023-04-22T22:08:59.154Z,83.00
2023-04-22T22:14:01.396Z,83.20
2023-04-22T22:19:06.403Z,84.00
2023-04-22T22:24:09.545Z,85.10
2023-04-22T22:29:15.528Z,84.70
2023-04-22T22:34:17.991Z,85.30
2023-04-22T22:39:20.500Z,85.40
2023-04-22T22:44:22.965Z,84.80
2023-04-22T22:49:25.522Z,83.40
2023-04-22T22:54:28.787Z,84.20
2023-04-22T22:59:32.335Z,86.00
2023-04-22T23:04:36.815Z,84.30
2023-04-22T23:09:39.341Z,84.90
2023-04-22T23:14:42.828Z,85.80
2023-04-22T23:19:45.712Z,86.60
2023-04-22T23:24:48.514Z,87.00
2023-04-22T23:29:51.237Z,86.20
2023-04-22T23:34:54.531Z,86.60
2023-04-22T23:39:57.206Z,86.50
2023-04-22T23:44:59.614Z,88.90
2023-04-22T23:50:02.877Z,88.40
2023-04-22T23:55:06.523Z,88.10
